Time;durP1;ratioP1;P1;durP2;ratioP2;P2;SDS_P1;SDS_P2;PMS_P1;PMS_P2;Temp;Humidity;BMP_temperature;BMP_pressure;BME280_temperature;BME280_humidity;BME280_pressure;Samples;Min_cycle;Max_cycle;Signal;HPM_P1;HPM_P2
2021/10/19 00:01:51;;;;;;;6.85;3.65;;;;;;;;;;4377745;32;20096;-70
2021/10/19 00:04:17;;;;;;;6.25;3.28;;;;;;;;;;4377072;32;20069;-71
2021/10/19 00:06:44;;;;;;;4.87;3.00;;;;;;;;;;4390122;32;20174;-71
2021/10/19 00:09:10;;;;;;;7.62;3.33;;;;;;;;;;4377750;32;20089;-71
2021/10/19 00:11:37;;;;;;;7.65;3.95;;;;;;;;;;4389979;32;20091;-71
2021/10/19 00:14:04;;;;;;;5.53;3.40;;;;;;;;;;4352575;32;20077;-72
2021/10/19 00:16:30;;;;;;;5.70;3.30;;;;;;;;;;4381915;32;20089;-72
2021/10/19 00:18:57;;;;;;;7.85;3.80;;;;;;;;;;4354647;32;20078;-72
2021/10/19 00:21:23;;;;;;;6.18;3.12;;;;;;;;;;4366771;32;20606;-71
2021/10/19 00:23:50;;;;;;;9.68;3.62;;;;;;;;;;4367262;32;20570;-71
2021/10/19 00:26:16;;;;;;;6.35;3.45;;;;;;;;;;4354837;32;20100;-72
2021/10/19 00:28:43;;;;;;;7.75;3.42;;;;;;;;;;4379788;32;20073;-72
2021/10/19 00:31:09;;;;;;;8.48;4.35;;;;;;;;;;4354734;32;20094;-72
2021/10/19 00:33:36;;;;;;;8.70;4.10;;;;;;;;;;4379168;32;20069;-71
2021/10/19 00:36:02;;;;;;;7.72;3.62;;;;;;;;;;4367183;32;20085;-71
2021/10/19 00:38:29;;;;;;;7.68;3.97;;;;;;;;;;4354779;32;20070;-71
2021/10/19 00:40:55;;;;;;;9.68;4.20;;;;;;;;;;4393115;32;20155;-71
2021/10/19 00:43:24;;;;;;;6.75;3.60;;;;;;;;;;4366641;32;20153;-71
2021/10/19 00:45:50;;;;;;;8.10;3.92;;;;;;;;;;4380076;32;20093;-71
2021/10/19 00:48:17;;;;;;;8.32;3.55;;;;;;;;;;4353884;32;20501;-71
2021/10/19 00:50:44;;;;;;;6.78;3.25;;;;;;;;;;4379762;32;20090;-72
2021/10/19 00:53:11;;;;;;;5.47;3.17;;;;;;;;;;4379460;32;20082;-70
2021/10/19 00:55:37;;;;;;;7.35;3.58;;;;;;;;;;4355102;32;20146;-70
2021/10/19 00:58:06;;;;;;;6.50;3.42;;;;;;;;;;4379401;32;20516;-71
2021/10/19 01:00:33;;;;;;;7.90;3.35;;;;;;;;;;4384078;32;20069;-72
2021/10/19 01:02:59;;;;;;;5.10;3.10;;;;;;;;;;4385103;32;20093;-71
2021/10/19 01:05:26;;;;;;;5.82;3.40;;;;;;;;;;4372625;32;20090;-71
2021/10/19 01:07:53;;;;;;;5.57;2.85;;;;;;;;;;4383615;32;20073;-71
2021/10/19 01:10:19;;;;;;;5.43;3.62;;;;;;;;;;4359738;32;20456;-71
2021/10/19 01:12:46;;;;;;;5.75;3.00;;;;;;;;;;4360832;32;20074;-71
2021/10/19 01:15:14;;;;;;;5.45;2.90;;;;;;;;;;4373731;32;20512;-72
2021/10/19 01:17:45;;;;;;;5.20;2.67;;;;;;;;;;4372711;32;20077;-71
2021/10/19 01:20:35;;;;;;;4.87;3.00;;;;;;;;;;4361667;32;20081;-71
2021/10/19 01:23:02;;;;;;;8.65;3.40;;;;;;;;;;4349454;32;20089;-72
2021/10/19 01:25:29;;;;;;;7.62;3.40;;;;;;;;;;4383895;32;20170;-72
2021/10/19 01:27:58;;;;;;;6.18;3.45;;;;;;;;;;4370812;32;20097;-72
2021/10/19 01:30:25;;;;;;;7.80;4.07;;;;;;;;;;4346924;32;20083;-73
2021/10/19 01:32:52;;;;;;;7.87;3.58;;;;;;;;;;4381038;32;20180;-72
2021/10/19 01:35:18;;;;;;;8.05;4.00;;;;;;;;;;4369572;32;20066;-72
2021/10/19 01:37:45;;;;;;;7.10;3.80;;;;;;;;;;4381419;32;20100;-72
2021/10/19 01:40:15;;;;;;;8.60;4.05;;;;;;;;;;4367421;32;20544;-72
2021/10/19 01:42:42;;;;;;;6.55;3.62;;;;;;;;;;4353443;32;20149;-70
2021/10/19 01:45:16;;;;;;;6.18;3.50;;;;;;;;;;4353880;32;20086;-70
2021/10/19 01:47:42;;;;;;;8.68;3.97;;;;;;;;;;4354437;32;20092;-71
2021/10/19 01:50:10;;;;;;;7.35;3.95;;;;;;;;;;4365946;32;20085;-72
2021/10/19 01:52:36;;;;;;;8.95;4.03;;;;;;;;;;4353618;32;20103;-70
2021/10/19 01:55:04;;;;;;;6.53;3.65;;;;;;;;;;4341220;32;20515;-71
2021/10/19 01:57:31;;;;;;;9.45;4.32;;;;;;;;;;4378296;32;20082;-71
2021/10/19 01:59:58;;;;;;;8.52;4.00;;;;;;;;;;4392473;32;20152;-71
2021/10/19 02:02:25;;;;;;;9.10;3.67;;;;;;;;;;4353550;32;20648;-72
2021/10/19 02:04:51;;;;;;;7.45;4.28;;;;;;;;;;4365520;32;20523;-72
2021/10/19 02:07:18;;;;;;;9.88;4.18;;;;;;;;;;4365589;32;20192;-71
2021/10/19 02:09:44;;;;;;;6.40;3.70;;;;;;;;;;4353947;32;20096;-70
2021/10/19 02:12:11;;;;;;;6.15;3.60;;;;;;;;;;4378086;32;20073;-71
2021/10/19 02:14:37;;;;;;;5.40;3.60;;;;;;;;;;4391758;32;20058;-72
2021/10/19 02:17:03;;;;;;;6.68;3.47;;;;;;;;;;4377886;32;20077;-71
2021/10/19 02:19:30;;;;;;;9.98;4.50;;;;;;;;;;4377835;32;20086;-71
2021/10/19 02:21:56;;;;;;;9.55;4.65;;;;;;;;;;4366277;32;20082;-71
2021/10/19 02:24:23;;;;;;;6.87;3.97;;;;;;;;;;4366789;32;20077;-71
2021/10/19 02:26:50;;;;;;;9.00;3.42;;;;;;;;;;4366049;32;20166;-72
2021/10/19 02:29:17;;;;;;;7.97;3.83;;;;;;;;;;4365521;32;20422;-71
2021/10/19 02:31:44;;;;;;;6.05;3.60;;;;;;;;;;4365478;32;20092;-72
2021/10/19 02:34:11;;;;;;;8.35;3.65;;;;;;;;;;4377923;32;20177;-72
2021/10/19 02:36:37;;;;;;;7.40;3.80;;;;;;;;;;4364821;32;20445;-71
2021/10/19 02:39:06;;;;;;;8.38;4.10;;;;;;;;;;4365087;32;20156;-72
2021/10/19 02:41:36;;;;;;;7.18;3.40;;;;;;;;;;4353442;32;20078;-71
2021/10/19 02:44:03;;;;;;;7.53;3.35;;;;;;;;;;4365267;32;20077;-70
2021/10/19 02:46:31;;;;;;;4.95;3.30;;;;;;;;;;4377411;32;20181;-70
2021/10/19 02:49:02;;;;;;;7.55;3.33;;;;;;;;;;4365427;32;20226;-71
2021/10/19 02:51:28;;;;;;;5.53;2.97;;;;;;;;;;4365429;32;20086;-71
2021/10/19 02:53:55;;;;;;;5.57;3.10;;;;;;;;;;4377887;32;20089;-71
2021/10/19 02:56:21;;;;;;;5.05;3.10;;;;;;;;;;4366139;32;20088;-71
2021/10/19 02:58:48;;;;;;;4.90;2.83;;;;;;;;;;4392755;32;20157;-72
2021/10/19 03:01:15;;;;;;;5.78;3.35;;;;;;;;;;4341755;32;20059;-72
2021/10/19 03:03:41;;;;;;;4.55;3.00;;;;;;;;;;4365041;32;20086;-71
2021/10/19 03:06:08;;;;;;;4.60;2.83;;;;;;;;;;4352687;32;20075;-71
2021/10/19 03:08:34;;;;;;;5.80;3.58;;;;;;;;;;4365512;32;20154;-71
2021/10/19 03:11:01;;;;;;;4.40;3.10;;;;;;;;;;4366265;32;20105;-71
2021/10/19 03:13:28;;;;;;;7.95;3.33;;;;;;;;;;4352815;32;20600;-72
2021/10/19 03:15:55;;;;;;;6.65;3.28;;;;;;;;;;4377385;32;20093;-72
2021/10/19 03:18:22;;;;;;;4.90;3.17;;;;;;;;;;4353044;32;20113;-71
2021/10/19 03:20:49;;;;;;;5.40;3.08;;;;;;;;;;4391510;32;20070;-72
2021/10/19 03:23:16;;;;;;;7.68;3.62;;;;;;;;;;4352961;32;20077;-71
2021/10/19 03:25:43;;;;;;;6.55;3.60;;;;;;;;;;4353103;32;20423;-72
2021/10/19 03:28:09;;;;;;;8.88;3.70;;;;;;;;;;4352545;32;20080;-72
2021/10/19 03:30:36;;;;;;;10.38;4.30;;;;;;;;;;4364895;32;20078;-71
2021/10/19 03:33:02;;;;;;;13.23;4.97;;;;;;;;;;4365320;32;20080;-71
2021/10/19 03:35:29;;;;;;;12.35;4.80;;;;;;;;;;4366823;32;20512;-71
2021/10/19 03:37:55;;;;;;;11.82;5.18;;;;;;;;;;4365370;32;20461;-72
2021/10/19 03:40:22;;;;;;;9.82;4.70;;;;;;;;;;4365084;32;20144;-71
2021/10/19 03:42:49;;;;;;;12.63;4.90;;;;;;;;;;4364936;32;20510;-71
2021/10/19 03:45:16;;;;;;;9.73;4.20;;;;;;;;;;4364677;32;20074;-71
2021/10/19 03:47:43;;;;;;;9.32;4.20;;;;;;;;;;4364652;32;20501;-71
2021/10/19 03:50:12;;;;;;;8.88;4.03;;;;;;;;;;4391705;32;20109;-71
2021/10/19 03:52:38;;;;;;;10.65;4.45;;;;;;;;;;4380102;32;20085;-71
2021/10/19 03:55:06;;;;;;;6.53;4.28;;;;;;;;;;4367635;32;20105;-71
2021/10/19 03:57:32;;;;;;;7.57;4.28;;;;;;;;;;4380175;32;20090;-72
2021/10/19 03:59:59;;;;;;;8.55;4.20;;;;;;;;;;4354915;32;20113;-71
2021/10/19 04:02:25;;;;;;;6.87;4.05;;;;;;;;;;4367057;32;20472;-72
2021/10/19 04:04:52;;;;;;;8.50;4.30;;;;;;;;;;4379606;32;20085;-70
2021/10/19 04:07:18;;;;;;;7.00;4.12;;;;;;;;;;4380068;32;20509;-72
2021/10/19 04:09:45;;;;;;;7.00;4.30;;;;;;;;;;4379677;32;20073;-72
2021/10/19 04:14:21;;;;;;;10.77;5.45;;;;;;;;;;3833968;37;20054;-72
2021/10/19 04:16:48;;;;;;;6.78;4.30;;;;;;;;;;4379121;32;20089;-72
2021/10/19 04:19:15;;;;;;;9.13;5.07;;;;;;;;;;4365737;32;20153;-71
2021/10/19 04:21:45;;;;;;;8.65;6.18;;;;;;;;;;4365917;32;20082;-72
2021/10/19 04:24:12;;;;;;;9.68;5.32;;;;;;;;;;4365819;32;20525;-72
2021/10/19 04:26:39;;;;;;;8.48;5.00;;;;;;;;;;4365947;32;20077;-71
2021/10/19 04:29:05;;;;;;;9.48;5.40;;;;;;;;;;4378870;32;20061;-71
2021/10/19 04:31:32;;;;;;;10.43;5.43;;;;;;;;;;4378519;32;20086;-72
2021/10/19 04:34:01;;;;;;;9.43;4.43;;;;;;;;;;4365903;32;20505;-71
2021/10/19 04:36:27;;;;;;;9.82;4.32;;;;;;;;;;4378264;32;20077;-72
2021/10/19 04:38:54;;;;;;;4.55;2.42;;;;;;;;;;4390596;32;20101;-70
2021/10/19 04:41:20;;;;;;;3.85;2.72;;;;;;;;;;4390079;32;20085;-72
2021/10/19 04:43:47;;;;;;;4.78;2.67;;;;;;;;;;4362833;32;20081;-71
2021/10/19 04:46:14;;;;;;;4.37;2.22;;;;;;;;;;4362665;32;20073;-72
2021/10/19 04:48:40;;;;;;;3.10;2.12;;;;;;;;;;4375141;32;20078;-73
2021/10/19 04:51:08;;;;;;;4.30;2.15;;;;;;;;;;4362882;32;20504;-71
2021/10/19 04:53:35;;;;;;;3.10;2.20;;;;;;;;;;4363040;32;20090;-72
2021/10/19 04:56:02;;;;;;;5.60;2.00;;;;;;;;;;4375020;32;20073;-71
2021/10/19 04:58:29;;;;;;;3.45;2.00;;;;;;;;;;4375640;32;20105;-72
2021/10/19 05:00:56;;;;;;;2.62;2.12;;;;;;;;;;4362698;32;20062;-71
2021/10/19 05:03:23;;;;;;;4.15;2.37;;;;;;;;;;4362571;32;20507;-70
2021/10/19 05:05:50;;;;;;;4.85;2.75;;;;;;;;;;4388726;32;20584;-72
2021/10/19 05:08:16;;;;;;;5.15;2.75;;;;;;;;;;4362585;32;20086;-72
2021/10/19 05:10:43;;;;;;;4.07;2.15;;;;;;;;;;4374734;32;20154;-71
2021/10/19 05:13:10;;;;;;;3.92;1.77;;;;;;;;;;4374816;32;20112;-72
2021/10/19 05:15:37;;;;;;;2.60;2.08;;;;;;;;;;4362841;32;20080;-71
2021/10/19 05:18:03;;;;;;;3.28;2.00;;;;;;;;;;4362671;32;20159;-71
2021/10/19 05:20:30;;;;;;;2.62;1.92;;;;;;;;;;4362662;32;20070;-71
2021/10/19 05:22:59;;;;;;;2.28;1.33;;;;;;;;;;4362143;32;20078;-73
2021/10/19 05:25:25;;;;;;;2.20;1.75;;;;;;;;;;4366561;32;20505;-70
2021/10/19 05:27:52;;;;;;;3.00;1.33;;;;;;;;;;4378843;32;20512;-69
2021/10/19 05:30:19;;;;;;;1.75;1.40;;;;;;;;;;4378526;32;20505;-70
2021/10/19 05:32:46;;;;;;;2.53;1.52;;;;;;;;;;4352254;32;20174;-70
2021/10/19 05:35:12;;;;;;;1.65;1.55;;;;;;;;;;4365145;32;20092;-72
2021/10/19 05:37:39;;;;;;;1.62;0.95;;;;;;;;;;4352373;32;20070;-72
2021/10/19 05:40:06;;;;;;;1.20;1.00;;;;;;;;;;4365099;32;20085;-72
2021/10/19 05:42:34;;;;;;;2.15;1.45;;;;;;;;;;4364904;32;20059;-72
2021/10/19 05:45:00;;;;;;;1.60;1.25;;;;;;;;;;4352241;32;20082;-73
2021/10/19 05:47:27;;;;;;;2.55;1.67;;;;;;;;;;4339673;32;20078;-73
2021/10/19 05:49:53;;;;;;;3.70;1.85;;;;;;;;;;4351783;32;20509;-72
2021/10/19 05:52:19;;;;;;;3.20;1.80;;;;;;;;;;4339825;32;20109;-72
2021/10/19 05:54:46;;;;;;;4.40;1.90;;;;;;;;;;4352184;32;20070;-73
2021/10/19 05:57:12;;;;;;;2.92;1.70;;;;;;;;;;4339808;32;20082;-72
2021/10/19 05:59:39;;;;;;;2.47;1.62;;;;;;;;;;4364043;32;20504;-72
2021/10/19 06:02:06;;;;;;;3.85;1.75;;;;;;;;;;4352124;32;20090;-71
2021/10/19 06:04:32;;;;;;;3.03;1.70;;;;;;;;;;4352084;32;20080;-71
2021/10/19 06:06:59;;;;;;;2.15;1.60;;;;;;;;;;4351000;32;20479;-72
2021/10/19 06:09:27;;;;;;;2.00;1.58;;;;;;;;;;4352397;32;20092;-72
2021/10/19 06:11:53;;;;;;;2.50;1.37;;;;;;;;;;4351971;32;20081;-72
2021/10/19 06:14:20;;;;;;;5.25;1.70;;;;;;;;;;4364160;32;20094;-70
2021/10/19 06:16:47;;;;;;;2.97;1.37;;;;;;;;;;4355158;32;20531;-71
2021/10/19 06:19:13;;;;;;;2.65;1.30;;;;;;;;;;4374578;32;20074;-72
2021/10/19 06:21:40;;;;;;;1.77;1.10;;;;;;;;;;4352658;32;20157;-70
2021/10/19 06:24:07;;;;;;;2.10;1.27;;;;;;;;;;4351883;32;20159;-72
2021/10/19 06:26:36;;;;;;;1.58;1.35;;;;;;;;;;4363882;32;20085;-72
2021/10/19 06:29:04;;;;;;;2.53;1.37;;;;;;;;;;4351646;32;20473;-72
2021/10/19 06:31:31;;;;;;;1.35;1.23;;;;;;;;;;4351553;32;20081;-72
2021/10/19 06:33:57;;;;;;;1.27;1.08;;;;;;;;;;4363260;32;20073;-72
2021/10/19 06:36:24;;;;;;;3.72;1.65;;;;;;;;;;4350970;32;20074;-72
2021/10/19 06:38:51;;;;;;;2.47;1.33;;;;;;;;;;4351161;32;20085;-71
2021/10/19 06:41:17;;;;;;;2.33;1.52;;;;;;;;;;4351466;32;20074;-72
2021/10/19 06:43:44;;;;;;;2.50;1.37;;;;;;;;;;4363760;32;20078;-71
2021/10/19 06:46:10;;;;;;;1.48;1.33;;;;;;;;;;4338613;32;20155;-72
2021/10/19 06:48:37;;;;;;;1.60;1.23;;;;;;;;;;4363121;32;20505;-71
2021/10/19 06:51:05;;;;;;;1.58;1.00;;;;;;;;;;4351294;32;20177;-72
2021/10/19 06:53:35;;;;;;;1.23;1.12;;;;;;;;;;4351166;32;20085;-72
2021/10/19 06:56:02;;;;;;;1.77;1.20;;;;;;;;;;4351335;32;20073;-71
2021/10/19 06:58:28;;;;;;;1.73;1.23;;;;;;;;;;4352390;32;20103;-72
2021/10/19 07:00:56;;;;;;;1.92;1.37;;;;;;;;;;4350999;32;20084;-72
2021/10/19 07:03:24;;;;;;;2.08;1.48;;;;;;;;;;4350692;32;20129;-72
2021/10/19 07:05:50;;;;;;;1.90;1.05;;;;;;;;;;4351421;32;20504;-72
2021/10/19 07:08:17;;;;;;;2.62;1.23;;;;;;;;;;4350903;32;20177;-71
2021/10/19 07:22:28;;;;;;;2.67;1.40;;;;;;;;;;3855302;37;20141;-63
2021/10/19 07:24:56;;;;;;;2.03;1.37;;;;;;;;;;4381790;32;20065;-64
2021/10/19 07:27:22;;;;;;;2.50;1.27;;;;;;;;;;4393095;32;20069;-63
2021/10/19 07:29:49;;;;;;;3.00;1.33;;;;;;;;;;4405267;32;20066;-62
2021/10/19 07:32:15;;;;;;;2.70;1.45;;;;;;;;;;4380482;32;20156;-65
2021/10/19 07:34:42;;;;;;;2.85;1.40;;;;;;;;;;4393110;32;20156;-64
2021/10/19 07:37:08;;;;;;;2.55;1.40;;;;;;;;;;4406056;32;20075;-64
2021/10/19 07:39:35;;;;;;;1.37;1.27;;;;;;;;;;4394226;32;20081;-63
2021/10/19 07:42:02;;;;;;;2.80;1.67;;;;;;;;;;4380511;32;20407;-64
2021/10/19 07:44:29;;;;;;;1.75;1.42;;;;;;;;;;4380751;32;20173;-64
2021/10/19 07:46:55;;;;;;;1.65;1.08;;;;;;;;;;4393771;32;20223;-64
2021/10/19 07:49:22;;;;;;;2.35;1.25;;;;;;;;;;4380446;32;20150;-64
2021/10/19 07:51:50;;;;;;;2.08;1.58;;;;;;;;;;4392861;32;20169;-64
2021/10/19 07:54:17;;;;;;;2.42;1.20;;;;;;;;;;4392928;32;20156;-64
2021/10/19 07:56:44;;;;;;;2.80;1.23;;;;;;;;;;4405283;32;20065;-64
2021/10/19 07:59:10;;;;;;;1.83;1.20;;;;;;;;;;4405143;32;20199;-65
2021/10/19 08:01:37;;;;;;;2.95;1.40;;;;;;;;;;4392441;32;20495;-63
2021/10/19 08:04:03;;;;;;;1.50;1.37;;;;;;;;;;4405541;32;20069;-65
2021/10/19 08:06:31;;;;;;;1.92;1.40;;;;;;;;;;4379538;32;20072;-63
2021/10/19 08:08:57;;;;;;;2.17;1.40;;;;;;;;;;4392100;32;20077;-63
2021/10/19 08:11:24;;;;;;;2.87;1.35;;;;;;;;;;4392528;32;20062;-63
2021/10/19 08:13:54;;;;;;;1.48;1.10;;;;;;;;;;4392566;32;20431;-64
2021/10/19 08:16:20;;;;;;;1.83;1.05;;;;;;;;;;4380458;32;20080;-63
2021/10/19 08:18:48;;;;;;;2.00;1.42;;;;;;;;;;4392144;32;20080;-63
2021/10/19 08:21:14;;;;;;;3.25;1.65;;;;;;;;;;4373871;32;20097;-64
2021/10/19 08:23:41;;;;;;;1.67;0.95;;;;;;;;;;4389678;32;20495;-62
2021/10/19 08:26:08;;;;;;;2.53;1.40;;;;;;;;;;4389393;32;20062;-65
2021/10/19 08:28:39;;;;;;;1.90;1.35;;;;;;;;;;4390107;32;20055;-64
2021/10/19 08:31:09;;;;;;;1.60;1.23;;;;;;;;;;4389370;32;20070;-65
2021/10/19 08:33:36;;;;;;;3.12;1.85;;;;;;;;;;4389248;32;20181;-62
2021/10/19 08:36:03;;;;;;;2.03;1.12;;;;;;;;;;4364680;32;20066;-64
2021/10/19 08:38:30;;;;;;;3.85;1.45;;;;;;;;;;4376627;32;20078;-64
2021/10/19 08:40:58;;;;;;;3.65;1.65;;;;;;;;;;4389688;32;20169;-63
2021/10/19 08:43:24;;;;;;;2.50;1.62;;;;;;;;;;4377397;32;20078;-62
2021/10/19 08:45:52;;;;;;;1.77;1.30;;;;;;;;;;4389387;32;20131;-64
2021/10/19 08:48:18;;;;;;;1.62;1.23;;;;;;;;;;4389128;32;20063;-63
2021/10/19 08:50:45;;;;;;;2.70;1.45;;;;;;;;;;4389490;32;20090;-63
2021/10/19 08:53:12;;;;;;;3.17;1.30;;;;;;;;;;4364455;32;20116;-64
2021/10/19 08:55:40;;;;;;;1.20;1.10;;;;;;;;;;4377617;32;20092;-63
2021/10/19 08:58:13;;;;;;;2.47;1.50;;;;;;;;;;4389320;32;20134;-63
2021/10/19 09:00:40;;;;;;;4.75;1.42;;;;;;;;;;4376933;32;20074;-64
2021/10/19 09:03:07;;;;;;;1.75;0.90;;;;;;;;;;4388976;32;20070;-65
2021/10/19 09:05:34;;;;;;;2.95;1.02;;;;;;;;;;4376336;32;20105;-64
2021/10/19 09:08:05;;;;;;;2.28;1.15;;;;;;;;;;4376623;32;20073;-64
2021/10/19 09:10:34;;;;;;;3.10;1.50;;;;;;;;;;4376316;32;20491;-63
2021/10/19 09:13:05;;;;;;;3.22;1.60;;;;;;;;;;4388903;32;20078;-64
2021/10/19 09:15:33;;;;;;;3.08;1.27;;;;;;;;;;4376473;32;20082;-65
2021/10/19 09:18:10;;;;;;;1.45;1.30;;;;;;;;;;4388710;32;20177;-63
2021/10/19 09:20:39;;;;;;;2.72;1.55;;;;;;;;;;4377561;32;20550;-63
2021/10/19 09:23:06;;;;;;;3.08;1.27;;;;;;;;;;4381699;32;20072;-63
2021/10/19 09:25:35;;;;;;;1.73;1.17;;;;;;;;;;4381321;32;20069;-64
2021/10/19 09:28:02;;;;;;;1.95;1.40;;;;;;;;;;4381971;32;20066;-63
2021/10/19 09:30:37;;;;;;;1.77;1.25;;;;;;;;;;4368876;32;20509;-65
2021/10/19 09:33:06;;;;;;;2.37;1.50;;;;;;;;;;4381094;32;20133;-63
2021/10/19 09:35:33;;;;;;;1.92;1.50;;;;;;;;;;4393664;32;20077;-65
2021/10/19 09:38:01;;;;;;;2.75;1.60;;;;;;;;;;4393909;32;20507;-63
2021/10/19 09:40:35;;;;;;;2.10;1.50;;;;;;;;;;4394388;32;20087;-63
2021/10/19 09:43:04;;;;;;;3.42;1.80;;;;;;;;;;4368570;32;20073;-63
2021/10/19 09:45:31;;;;;;;2.95;1.42;;;;;;;;;;4368404;32;20507;-63
2021/10/19 09:47:58;;;;;;;1.37;1.17;;;;;;;;;;4368370;32;20145;-63
2021/10/19 09:50:25;;;;;;;2.78;1.25;;;;;;;;;;4381507;32;20150;-64
2021/10/19 09:52:52;;;;;;;1.20;1.10;;;;;;;;;;4381054;32;20480;-63
2021/10/19 09:55:19;;;;;;;2.22;1.70;;;;;;;;;;4368465;32;20084;-64
2021/10/19 09:57:49;;;;;;;4.57;1.30;;;;;;;;;;4368064;32;20093;-64
2021/10/19 10:00:16;;;;;;;1.95;1.42;;;;;;;;;;4394156;32;20109;-63
2021/10/19 10:02:45;;;;;;;2.65;1.60;;;;;;;;;;4368755;32;20077;-63
2021/10/19 10:05:12;;;;;;;2.25;1.27;;;;;;;;;;4368410;32;20082;-64
2021/10/19 10:07:41;;;;;;;2.95;1.55;;;;;;;;;;4380675;32;20070;-63
2021/10/19 10:10:08;;;;;;;2.45;1.60;;;;;;;;;;4393166;32;20577;-64
2021/10/19 10:12:35;;;;;;;2.05;1.02;;;;;;;;;;4380324;32;20454;-64
2021/10/19 10:15:01;;;;;;;3.10;1.40;;;;;;;;;;4367778;32;20467;-63
2021/10/19 10:17:28;;;;;;;2.25;1.25;;;;;;;;;;4382372;32;20165;-65
2021/10/19 10:20:05;;;;;;;1.15;0.95;;;;;;;;;;4394436;32;20073;-64
2021/10/19 10:22:32;;;;;;;1.48;0.82;;;;;;;;;;4378019;32;20092;-64
2021/10/19 10:25:09;;;;;;;1.23;0.93;;;;;;;;;;4390295;32;20095;-65
2021/10/19 10:27:36;;;;;;;1.20;1.10;;;;;;;;;;4390450;32;20170;-66
2021/10/19 10:30:03;;;;;;;1.58;1.10;;;;;;;;;;4377676;32;20073;-64
2021/10/19 10:32:31;;;;;;;2.00;0.98;;;;;;;;;;4364947;32;20085;-64
2021/10/19 10:35:09;;;;;;;2.12;1.20;;;;;;;;;;4365586;32;20066;-64
2021/10/19 10:37:48;;;;;;;3.80;1.58;;;;;;;;;;4378029;32;20158;-63
2021/10/19 10:40:34;;;;;;;2.47;1.80;;;;;;;;;;4377758;32;20126;-65
2021/10/19 10:43:18;;;;;;;3.22;1.77;;;;;;;;;;4365372;32;20104;-65
2021/10/19 10:45:45;;;;;;;2.97;1.48;;;;;;;;;;4377664;32;20129;-65
2021/10/19 10:48:12;;;;;;;2.15;1.58;;;;;;;;;;4377683;32;20154;-64
2021/10/19 10:50:39;;;;;;;3.08;2.00;;;;;;;;;;4372833;32;20070;-65
2021/10/19 10:53:15;;;;;;;5.10;2.05;;;;;;;;;;4362597;32;20509;-63
2021/10/19 10:55:43;;;;;;;2.37;1.80;;;;;;;;;;4365675;32;20168;-64
2021/10/19 10:58:21;;;;;;;2.30;1.37;;;;;;;;;;4376367;32;20526;-63
2021/10/19 11:00:47;;;;;;;3.03;2.00;;;;;;;;;;4358647;32;20105;-64
2021/10/19 11:03:15;;;;;;;2.45;1.62;;;;;;;;;;4384821;32;20078;-62
2021/10/19 11:05:59;;;;;;;1.75;1.33;;;;;;;;;;4384227;32;20105;-65
2021/10/19 11:08:28;;;;;;;1.62;1.05;;;;;;;;;;4366381;32;20251;-69
2021/10/19 11:11:11;;;;;;;2.28;1.30;;;;;;;;;;4371643;32;20070;-66
2021/10/19 11:14:07;;;;;;;2.10;1.40;;;;;;;;;;4385597;32;20086;-66
2021/10/19 11:16:34;;;;;;;3.15;1.52;;;;;;;;;;4371917;32;20243;-68
2021/10/19 11:19:01;;;;;;;2.95;1.70;;;;;;;;;;4386652;32;20145;-66
2021/10/19 11:21:28;;;;;;;4.43;2.08;;;;;;;;;;4360448;32;20078;-67
2021/10/19 11:23:55;;;;;;;2.17;1.55;;;;;;;;;;4376823;32;20142;-65
2021/10/19 11:26:22;;;;;;;2.35;1.48;;;;;;;;;;4370030;32;20092;-65
2021/10/19 11:28:49;;;;;;;3.25;1.45;;;;;;;;;;4357711;32;20065;-66
2021/10/19 11:31:16;;;;;;;2.33;1.35;;;;;;;;;;4368895;32;20173;-69
2021/10/19 11:33:44;;;;;;;2.15;1.50;;;;;;;;;;4361599;32;20452;-67
2021/10/19 11:36:11;;;;;;;3.30;1.60;;;;;;;;;;4372471;32;20501;-68
2021/10/19 11:38:45;;;;;;;5.40;1.60;;;;;;;;;;4339478;32;20522;-68
2021/10/19 11:41:14;;;;;;;3.90;2.22;;;;;;;;;;4371017;32;20491;-64
2021/10/19 11:43:47;;;;;;;2.75;1.37;;;;;;;;;;4385738;32;20496;-67
2021/10/19 11:46:19;;;;;;;;;;;;;;;;;;4358690;32;20093;-67
2021/10/19 11:48:48;;;;;;;2.90;1.45;;;;;;;;;;4375406;32;19978;-67
2021/10/19 11:51:20;;;;;;;2.17;1.42;;;;;;;;;;4383621;32;20652;-67
2021/10/19 11:53:47;;;;;;;2.92;1.48;;;;;;;;;;4370078;32;20550;-68
2021/10/19 11:56:14;;;;;;;2.92;1.58;;;;;;;;;;4349311;32;20489;-67
2021/10/19 11:59:02;;;;;;;2.50;1.42;;;;;;;;;;4376779;32;20089;-66
2021/10/19 12:01:35;;;;;;;4.62;1.90;;;;;;;;;;4381245;32;20105;-66
2021/10/19 12:04:04;;;;;;;3.80;1.50;;;;;;;;;;4360398;32;20179;-62
2021/10/19 12:06:33;;;;;;;4.22;1.77;;;;;;;;;;4341942;32;20067;-63
2021/10/19 12:09:17;;;;;;;3.22;1.55;;;;;;;;;;4371141;32;20078;-63
2021/10/19 12:11:58;;;;;;;2.20;1.33;;;;;;;;;;4351652;32;20452;-64
2021/10/19 12:14:29;;;;;;;2.08;1.70;;;;;;;;;;4370250;32;20445;-65
2021/10/19 12:17:00;;;;;;;2.70;1.42;;;;;;;;;;4359186;32;20618;-64
2021/10/19 12:19:27;;;;;;;4.07;1.48;;;;;;;;;;4356855;32;20170;-65
2021/10/19 12:21:56;;;;;;;2.33;1.12;;;;;;;;;;4370247;32;20156;-64
2021/10/19 12:24:23;;;;;;;2.20;1.20;;;;;;;;;;4365150;32;20078;-64
2021/10/19 12:27:01;;;;;;;4.32;1.98;;;;;;;;;;4349848;32;20660;-65
2021/10/19 12:29:34;;;;;;;3.60;1.87;;;;;;;;;;4364074;32;20565;-65
2021/10/19 12:32:02;;;;;;;3.53;1.77;;;;;;;;;;4352627;32;20607;-64
2021/10/19 12:34:29;;;;;;;3.55;1.90;;;;;;;;;;4362460;32;20575;-63
2021/10/19 12:37:03;;;;;;;4.05;2.00;;;;;;;;;;4362655;32;20055;-64
2021/10/19 12:39:31;;;;;;;4.43;2.33;;;;;;;;;;4350180;32;20098;-65
2021/10/19 12:41:58;;;;;;;4.90;2.40;;;;;;;;;;4357622;32;20078;-64
2021/10/19 12:44:25;;;;;;;5.43;2.33;;;;;;;;;;4362724;32;20110;-63
2021/10/19 12:46:52;;;;;;;3.65;2.30;;;;;;;;;;4345197;32;20101;-67
2021/10/19 12:49:19;;;;;;;7.32;3.00;;;;;;;;;;4364720;32;20105;-65
2021/10/19 12:51:48;;;;;;;5.15;2.87;;;;;;;;;;4351552;32;20146;-64
2021/10/19 12:54:15;;;;;;;2.92;2.00;;;;;;;;;;4377481;32;20099;-66
2021/10/19 12:56:42;;;;;;;7.20;2.60;;;;;;;;;;4366546;32;21427;-66
2021/10/19 12:59:08;;;;;;;6.28;3.08;;;;;;;;;;4360482;32;20081;-63
2021/10/19 13:01:35;;;;;;;3.42;1.92;;;;;;;;;;4365854;32;20078;-65
2021/10/19 13:04:01;;;;;;;4.62;2.35;;;;;;;;;;4376123;32;20074;-64
2021/10/19 13:06:30;;;;;;;5.90;3.03;;;;;;;;;;4349647;32;20549;-65
2021/10/19 13:08:57;;;;;;;4.43;2.28;;;;;;;;;;4363365;32;20158;-64
2021/10/19 13:11:24;;;;;;;4.78;2.60;;;;;;;;;;4350875;32;20154;-63
2021/10/19 13:13:50;;;;;;;5.62;3.40;;;;;;;;;;4376154;32;20062;-64
2021/10/19 13:16:17;;;;;;;4.10;2.70;;;;;;;;;;4364040;32;20074;-63
2021/10/19 13:18:44;;;;;;;5.62;2.08;;;;;;;;;;4364110;32;20070;-65
2021/10/19 13:21:12;;;;;;;3.65;2.37;;;;;;;;;;4380431;32;20173;-64
2021/10/19 13:23:39;;;;;;;3.75;2.40;;;;;;;;;;4366601;32;20066;-64
2021/10/19 13:27:49;;;;;;;5.60;2.40;;;;;;;;;;3857581;37;20065;-64
2021/10/19 13:30:16;;;;;;;3.92;2.50;;;;;;;;;;4406885;32;20093;-65
2021/10/19 13:32:42;;;;;;;4.40;2.70;;;;;;;;;;4405872;32;20156;-63
2021/10/19 13:35:09;;;;;;;7.00;2.90;;;;;;;;;;4418842;32;20066;-65
2021/10/19 13:37:36;;;;;;;3.50;1.70;;;;;;;;;;4380502;32;20107;-64
2021/10/19 13:40:04;;;;;;;4.12;2.22;;;;;;;;;;4393405;32;20077;-63
2021/10/19 13:42:31;;;;;;;3.67;2.20;;;;;;;;;;4393365;32;20073;-63
2021/10/19 13:44:57;;;;;;;5.25;2.22;;;;;;;;;;4406019;32;20145;-65
2021/10/19 13:47:25;;;;;;;5.03;2.35;;;;;;;;;;4380582;32;20141;-69
2021/10/19 13:49:52;;;;;;;4.82;2.33;;;;;;;;;;4393319;32;20084;-63
2021/10/19 13:52:19;;;;;;;5.78;2.15;;;;;;;;;;4392969;32;20074;-63
2021/10/19 13:54:46;;;;;;;4.78;2.50;;;;;;;;;;4393143;32;20085;-63
2021/10/19 13:57:13;;;;;;;4.32;2.60;;;;;;;;;;4392875;32;20084;-63
2021/10/19 13:59:39;;;;;;;10.60;4.72;;;;;;;;;;4393001;32;20069;-63
2021/10/19 14:02:06;;;;;;;10.02;4.85;;;;;;;;;;4405903;32;20079;-63
2021/10/19 14:04:33;;;;;;;7.35;4.53;;;;;;;;;;4393605;32;20077;-63
2021/10/19 14:06:59;;;;;;;9.23;5.20;;;;;;;;;;4405361;32;20053;-63
2021/10/19 14:09:28;;;;;;;9.32;4.75;;;;;;;;;;4405234;32;20164;-64
2021/10/19 14:11:56;;;;;;;7.43;4.28;;;;;;;;;;4390865;32;20058;-64
2021/10/19 14:14:23;;;;;;;8.40;3.92;;;;;;;;;;4377831;32;20086;-64
2021/10/19 14:16:50;;;;;;;5.75;3.60;;;;;;;;;;4390353;32;20070;-64
2021/10/19 14:19:17;;;;;;;6.93;4.25;;;;;;;;;;4377092;32;20440;-63
2021/10/19 14:21:44;;;;;;;8.38;4.37;;;;;;;;;;4390135;32;20077;-63
2021/10/19 14:24:11;;;;;;;10.00;4.75;;;;;;;;;;4402616;32;20065;-64
2021/10/19 14:26:37;;;;;;;8.65;5.57;;;;;;;;;;4377178;32;20117;-64
2021/10/19 14:29:04;;;;;;;13.07;6.22;;;;;;;;;;4377569;32;20508;-64
2021/10/19 14:31:31;;;;;;;11.38;6.70;;;;;;;;;;4377768;32;20108;-64
2021/10/19 14:33:58;;;;;;;13.45;6.62;;;;;;;;;;4390013;32;20085;-65
2021/10/19 14:36:25;;;;;;;14.50;7.70;;;;;;;;;;4402456;32;20145;-64
2021/10/19 14:38:52;;;;;;;18.60;9.63;;;;;;;;;;4393980;32;20149;-64
2021/10/19 14:41:18;;;;;;;20.67;10.50;;;;;;;;;;4392349;32;20169;-63
2021/10/19 14:43:45;;;;;;;16.87;9.43;;;;;;;;;;4392480;32;20082;-63
2021/10/19 14:46:12;;;;;;;25.20;12.95;;;;;;;;;;4354650;32;20066;-62
2021/10/19 14:48:39;;;;;;;31.50;15.45;;;;;;;;;;4379593;32;20091;-64
2021/10/19 14:51:06;;;;;;;28.98;15.13;;;;;;;;;;4379695;32;20111;-65
2021/10/19 14:53:33;;;;;;;37.08;19.73;;;;;;;;;;4366685;32;20459;-63
2021/10/19 14:56:00;;;;;;;33.83;18.75;;;;;;;;;;4367065;32;20094;-65
2021/10/19 14:58:30;;;;;;;30.85;16.65;;;;;;;;;;4379722;32;20070;-64
2021/10/19 15:00:58;;;;;;;28.87;16.15;;;;;;;;;;4367127;32;20088;-64
2021/10/19 15:03:24;;;;;;;29.37;14.77;;;;;;;;;;4380008;32;20061;-64